sensor_id;sensor_type;location;lat;lon;timestamp;P1;P2;P0
53698;PMS7003;68408;53.952;27.612;2023-08-30T00:06:01;11.2;10.3;8.3
53698;PMS7003;68408;53.952;27.612;2023-08-30T00:20:33;11.7;10.9;8.6
53698;PMS7003;68408;53.952;27.612;2023-08-30T00:25:35;11.9;10.7;8.7
53698;PMS7003;68408;53.952;27.612;2023-08-30T00:31:07;13.4;10.8;8.9
53698;PMS7003;68408;53.952;27.612;2023-08-30T00:35:31;12.1;10.3;8.6
53698;PMS7003;68408;53.952;27.612;2023-08-30T00:40:55;9.7;8.9;7.4
53698;PMS7003;68408;53.952;27.612;2023-08-30T00:45:41;12.7;11.3;8.7
53698;PMS7003;68408;53.952;27.612;2023-08-30T00:50:55;13.3;11.7;9.3
53698;PMS7003;68408;53.952;27.612;2023-08-30T00:56:07;14.2;12.4;9.9
53698;PMS7003;68408;53.952;27.612;2023-08-30T01:00:47;14.3;12.4;9.8
53698;PMS7003;68408;53.952;27.612;2023-08-30T01:05:55;13.9;11.7;9.2
53698;PMS7003;68408;53.952;27.612;2023-08-30T01:10:34;15.1;13.2;10.8
53698;PMS7003;68408;53.952;27.612;2023-08-30T01:15:41;15.6;13.4;10.5
53698;PMS7003;68408;53.952;27.612;2023-08-30T01:21:09;15.7;14;10.8
53698;PMS7003;68408;53.952;27.612;2023-08-30T01:25:43;16.2;14;11.1
53698;PMS7003;68408;53.952;27.612;2023-08-30T01:30:55;15.6;13.2;10.1
53698;PMS7003;68408;53.952;27.612;2023-08-30T01:35:41;16.9;15;11.5
53698;PMS7003;68408;53.952;27.612;2023-08-30T01:40:56;17.5;15.3;11.7
53698;PMS7003;68408;53.952;27.612;2023-08-30T01:46:07;16.8;14.5;10.9
53698;PMS7003;68408;53.952;27.612;2023-08-30T01:50:41;16;14.3;11.5
53698;PMS7003;68408;53.952;27.612;2023-08-30T01:55:35;18.1;15.4;12
53698;PMS7003;68408;53.952;27.612;2023-08-30T02:00:39;18.4;16;12.1
53698;PMS7003;68408;53.952;27.612;2023-08-30T02:05:29;17.3;15.5;12
53698;PMS7003;68408;53.952;27.612;2023-08-30T02:11:09;18;16;12.5
53698;PMS7003;68408;53.952;27.612;2023-08-30T02:16:00;18.5;16.3;12.5
53698;PMS7003;68408;53.952;27.612;2023-08-30T02:20:55;18;15.3;11.9
53698;PMS7003;68408;53.952;27.612;2023-08-30T02:25:41;16.8;14.8;11.7
53698;PMS7003;68408;53.952;27.612;2023-08-30T02:30:55;18.8;16.6;12.8
53698;PMS7003;68408;53.952;27.612;2023-08-30T02:36:07;18.8;16.2;12.4
53698;PMS7003;68408;53.952;27.612;2023-08-30T02:40:47;17.7;16.1;12.4
53698;PMS7003;68408;53.952;27.612;2023-08-30T02:45:29;19;16.8;13
53698;PMS7003;68408;53.952;27.612;2023-08-30T02:50:35;17.9;15.8;12.5
53698;PMS7003;68408;53.952;27.612;2023-08-30T02:55:55;19.5;16.8;12.8
53698;PMS7003;68408;53.952;27.612;2023-08-30T03:01:07;18.7;15.8;11.8
53698;PMS7003;68408;53.952;27.612;2023-08-30T03:05:53;19;17.5;13.4
53698;PMS7003;68408;53.952;27.612;2023-08-30T03:10:31;19.3;17.1;13.4
53698;PMS7003;68408;53.952;27.612;2023-08-30T03:15:47;19.5;17.4;13.3
53698;PMS7003;68408;53.952;27.612;2023-08-30T03:20:59;19.2;17.4;13.3
53698;PMS7003;68408;53.952;27.612;2023-08-30T03:26:08;20.5;18.4;13.6
53698;PMS7003;68408;53.952;27.612;2023-08-30T03:30:35;19.3;17.4;13.2
53698;PMS7003;68408;53.952;27.612;2023-08-30T03:35:57;20.4;18.6;14.2
53698;PMS7003;68408;53.952;27.612;2023-08-30T03:40:39;20.4;17.9;13.4
53698;PMS7003;68408;53.952;27.612;2023-08-30T03:45:35;18.8;16.8;13.1
53698;PMS7003;68408;53.952;27.612;2023-08-30T03:51:07;19.9;17.5;13.5
53698;PMS7003;68408;53.952;27.612;2023-08-30T03:55:59;20.6;18.4;13.6
53698;PMS7003;68408;53.952;27.612;2023-08-30T04:00:43;22.2;19.2;14.8
53698;PMS7003;68408;53.952;27.612;2023-08-30T04:05:42;20.7;18;14
53698;PMS7003;68408;53.952;27.612;2023-08-30T04:10:55;21.4;18.9;14.3
53698;PMS7003;68408;53.952;27.612;2023-08-30T04:16:07;22.7;19.9;15.2
53698;PMS7003;68408;53.952;27.612;2023-08-30T04:20:47;27.1;24;17.4
53698;PMS7003;68408;53.952;27.612;2023-08-30T04:25:49;26.4;23.4;17.2
53698;PMS7003;68408;53.952;27.612;2023-08-30T04:30:29;25.5;23.6;17.8
53698;PMS7003;68408;53.952;27.612;2023-08-30T04:35:59;23.2;20.5;15.9
53698;PMS7003;68408;53.952;27.612;2023-08-30T04:41:07;20.5;18.2;13.8
53698;PMS7003;68408;53.952;27.612;2023-08-30T04:45:59;24;21.5;16.8
53698;PMS7003;68408;53.952;27.612;2023-08-30T04:50:59;23.9;21.4;16.5
53698;PMS7003;68408;53.952;27.612;2023-08-30T04:55:41;29.8;25.5;18.4
53698;PMS7003;68408;53.952;27.612;2023-08-30T05:00:49;29.2;25.8;19.2
53698;PMS7003;68408;53.952;27.612;2023-08-30T05:05:44;27.6;25.8;18.4
53698;PMS7003;68408;53.952;27.612;2023-08-30T05:10:49;26;23.2;17.9
53698;PMS7003;68408;53.952;27.612;2023-08-30T05:15:29;26;23.2;17.5
53698;PMS7003;68408;53.952;27.612;2023-08-30T05:20:29;26.5;23.7;17.8
53698;PMS7003;68408;53.952;27.612;2023-08-30T05:26:01;27.2;24.3;17.9
53698;PMS7003;68408;53.952;27.612;2023-08-30T05:31:09;32;28.2;20.6
53698;PMS7003;68408;53.952;27.612;2023-08-30T05:36:01;31;26.6;19.6
53698;PMS7003;68408;53.952;27.612;2023-08-30T05:40:57;27.9;25.3;18.9
53698;PMS7003;68408;53.952;27.612;2023-08-30T05:45:29;28.2;26;19.2
53698;PMS7003;68408;53.952;27.612;2023-08-30T05:50:31;29.1;26;19.4
53698;PMS7003;68408;53.952;27.612;2023-08-30T05:56:09;31.1;27.8;20.1
53698;PMS7003;68408;53.952;27.612;2023-08-30T06:00:29;32.4;28.2;20.1
53698;PMS7003;68408;53.952;27.612;2023-08-30T06:05:57;32.6;28.5;20.9
53698;PMS7003;68408;53.952;27.612;2023-08-30T06:10:30;36.6;31.4;22
53698;PMS7003;68408;53.952;27.612;2023-08-30T06:16:01;32.4;28.9;21.5
53698;PMS7003;68408;53.952;27.612;2023-08-30T06:21:09;34.2;29.7;20.5
53698;PMS7003;68408;53.952;27.612;2023-08-30T06:25:53;40.5;33.8;23.9
53698;PMS7003;68408;53.952;27.612;2023-08-30T06:30:37;32.9;28.9;21.3
53698;PMS7003;68408;53.952;27.612;2023-08-30T06:35:53;38.7;31.2;21.8
53698;PMS7003;68408;53.952;27.612;2023-08-30T06:40:49;36.5;31.1;22.3
53698;PMS7003;68408;53.952;27.612;2023-08-30T06:46:09;36.8;31.1;22.1
53698;PMS7003;68408;53.952;27.612;2023-08-30T06:51:11;34.5;30.6;21.6
53698;PMS7003;68408;53.952;27.612;2023-08-30T06:55:35;32.4;27.9;21.4
53698;PMS7003;68408;53.952;27.612;2023-08-30T07:00:29;32.3;26.4;18.4
53698;PMS7003;68408;53.952;27.612;2023-08-30T07:05:41;36.1;30.9;22.2
53698;PMS7003;68408;53.952;27.612;2023-08-30T07:11:09;35.4;30.3;21.6
53698;PMS7003;68408;53.952;27.612;2023-08-30T07:15:59;34.1;29.9;21.5
53698;PMS7003;68408;53.952;27.612;2023-08-30T07:20:55;35.3;30.4;22
53698;PMS7003;68408;53.952;27.612;2023-08-30T07:25:30;36.3;30.5;21.3
53698;PMS7003;68408;53.952;27.612;2023-08-30T07:31:09;36.6;31.2;22.1
53698;PMS7003;68408;53.952;27.612;2023-08-30T07:36:09;35.5;30.6;21.4
53698;PMS7003;68408;53.952;27.612;2023-08-30T07:40:49;36;30.6;21.5
53698;PMS7003;68408;53.952;27.612;2023-08-30T07:45:29;37.6;31;21.6
53698;PMS7003;68408;53.952;27.612;2023-08-30T07:50:45;36.5;31.2;22.1
53698;PMS7003;68408;53.952;27.612;2023-08-30T07:56:01;34.9;30.1;20.6
53698;PMS7003;68408;53.952;27.612;2023-08-30T08:01:09;34;29.6;21.3
53698;PMS7003;68408;53.952;27.612;2023-08-30T08:05:51;37.1;30.8;21.5
53698;PMS7003;68408;53.952;27.612;2023-08-30T08:10:58;34.5;30.4;21.4
53698;PMS7003;68408;53.952;27.612;2023-08-30T08:15:35;36.6;30.8;21.7
53698;PMS7003;68408;53.952;27.612;2023-08-30T08:20:35;34.3;30.5;21.6
53698;PMS7003;68408;53.952;27.612;2023-08-30T08:26:09;35.7;30.8;21.9
53698;PMS7003;68408;53.952;27.612;2023-08-30T08:30:44;35.6;31.3;22
53698;PMS7003;68408;53.952;27.612;2023-08-30T08:35:29;35.6;29.9;21.3
53698;PMS7003;68408;53.952;27.612;2023-08-30T08:40:36;35.3;30.8;22
53698;PMS7003;68408;53.952;27.612;2023-08-30T08:45:39;35;29.9;21.3
53698;PMS7003;68408;53.952;27.612;2023-08-30T08:51:10;34.6;30.2;21.6
53698;PMS7003;68408;53.952;27.612;2023-08-30T08:55:31;31.6;27.7;20
53698;PMS7003;68408;53.952;27.612;2023-08-30T09:00:57;28.6;24.2;17.4
53698;PMS7003;68408;53.952;27.612;2023-08-30T09:06:09;30.2;27.2;19.6
53698;PMS7003;68408;53.952;27.612;2023-08-30T09:10:49;33.5;29.8;21.2
53698;PMS7003;68408;53.952;27.612;2023-08-30T09:15:57;32.1;28.6;20.4
53698;PMS7003;68408;53.952;27.612;2023-08-30T09:20:35;32.4;28.3;20.4
53698;PMS7003;68408;53.952;27.612;2023-08-30T09:25:29;28.4;25.1;19.3
53698;PMS7003;68408;53.952;27.612;2023-08-30T09:30:30;31.4;27.9;20.4
53698;PMS7003;68408;53.952;27.612;2023-08-30T09:36:10;31.6;28.3;20.7
53698;PMS7003;68408;53.952;27.612;2023-08-30T09:41:09;32.6;29;20.6
53698;PMS7003;68408;53.952;27.612;2023-08-30T09:46:10;30.3;27.5;20.4
53698;PMS7003;68408;53.952;27.612;2023-08-30T09:50:33;31.3;27.8;20.3
53698;PMS7003;68408;53.952;27.612;2023-08-30T09:56:08;32.9;28.5;20.3
53698;PMS7003;68408;53.952;27.612;2023-08-30T10:01:08;28.7;26.3;19.5
53698;PMS7003;68408;53.952;27.612;2023-08-30T10:05:38;28.5;25.8;18.7
53698;PMS7003;68408;53.952;27.612;2023-08-30T10:11:10;28.1;24;17.4
53698;PMS7003;68408;53.952;27.612;2023-08-30T10:15:50;26.9;24.6;18.5
53698;PMS7003;68408;53.952;27.612;2023-08-30T10:20:36;23.4;20.8;15.2
53698;PMS7003;68408;53.952;27.612;2023-08-30T10:25:36;27.9;24.6;18.6
53698;PMS7003;68408;53.952;27.612;2023-08-30T10:31:08;26.1;23.9;18.2
53698;PMS7003;68408;53.952;27.612;2023-08-30T10:36:10;28.3;25.3;18.7
53698;PMS7003;68408;53.952;27.612;2023-08-30T10:41:05;27.7;23.9;18.1
53698;PMS7003;68408;53.952;27.612;2023-08-30T10:46:10;27.3;23.9;17.8
53698;PMS7003;68408;53.952;27.612;2023-08-30T10:50:30;26.8;23.1;18.2
53698;PMS7003;68408;53.952;27.612;2023-08-30T10:56:13;24.8;22.2;16.5
53698;PMS7003;68408;53.952;27.612;2023-08-30T11:00:39;23.8;21.6;17.1
53698;PMS7003;68408;53.952;27.612;2023-08-30T11:05:30;25.8;23.9;18.5
53698;PMS7003;68408;53.952;27.612;2023-08-30T11:10:30;25.3;22.9;17.1
53698;PMS7003;68408;53.952;27.612;2023-08-30T11:15:46;25.3;23.2;17.9
53698;PMS7003;68408;53.952;27.612;2023-08-30T11:21:10;26.2;22.9;17.2
53698;PMS7003;68408;53.952;27.612;2023-08-30T11:26:10;27.1;24;18.3
53698;PMS7003;68408;53.952;27.612;2023-08-30T11:30:58;27;24.1;18.2
53698;PMS7003;68408;53.952;27.612;2023-08-30T11:36:10;24.6;22.7;17.8
53698;PMS7003;68408;53.952;27.612;2023-08-30T11:40:36;24.3;22.1;16.8
53698;PMS7003;68408;53.952;27.612;2023-08-30T11:45:56;27.1;24.9;18.6
53698;PMS7003;68408;53.952;27.612;2023-08-30T11:50:52;25.5;23.1;17.9
53698;PMS7003;68408;53.952;27.612;2023-08-30T11:55:30;25;22.6;17.5
53698;PMS7003;68408;53.952;27.612;2023-08-30T12:00:40;24;21.8;16.6
53698;PMS7003;68408;53.952;27.612;2023-08-30T12:05:54;27.7;24.8;18.7
53698;PMS7003;68408;53.952;27.612;2023-08-30T12:11:16;25.8;23.7;18.1
53698;PMS7003;68408;53.952;27.612;2023-08-30T12:16:14;27.2;24.5;18.7
53698;PMS7003;68408;53.952;27.612;2023-08-30T12:21:10;26.2;24.1;18.1
53698;PMS7003;68408;53.952;27.612;2023-08-30T12:26:10;25.9;23.9;18.2
53698;PMS7003;68408;53.952;27.612;2023-08-30T12:30:44;28.9;25.8;19.5
53698;PMS7003;68408;53.952;27.612;2023-08-30T12:35:56;28.5;25.4;18.7
53698;PMS7003;68408;53.952;27.612;2023-08-30T12:40:30;28.5;25.5;19.5
53698;PMS7003;68408;53.952;27.612;2023-08-30T12:45:50;26.5;24.1;18.5
53698;PMS7003;68408;53.952;27.612;2023-08-30T12:50:30;27.9;25.3;19.1
53698;PMS7003;68408;53.952;27.612;2023-08-30T12:55:46;31.6;28.2;20.5
53698;PMS7003;68408;53.952;27.612;2023-08-30T13:00:54;31.7;27.5;20.2
53698;PMS7003;68408;53.952;27.612;2023-08-30T13:05:54;28.3;25.5;19
53698;PMS7003;68408;53.952;27.612;2023-08-30T13:11:10;27.6;25.2;19.3
53698;PMS7003;68408;53.952;27.612;2023-08-30T13:15:58;28;25.6;19.1
53698;PMS7003;68408;53.952;27.612;2023-08-30T13:20:50;31.4;27.9;20.8
53698;PMS7003;68408;53.952;27.612;2023-08-30T13:26:10;27;23.8;17.3
53698;PMS7003;68408;53.952;27.612;2023-08-30T13:30:36;28.3;25.6;19.1
53698;PMS7003;68408;53.952;27.612;2023-08-30T13:35:30;28.4;25.2;19
53698;PMS7003;68408;53.952;27.612;2023-08-30T13:40:57;27.8;25.4;19.2
53698;PMS7003;68408;53.952;27.612;2023-08-30T13:45:30;28.4;25.9;18.8
53698;PMS7003;68408;53.952;27.612;2023-08-30T13:50:32;28.9;26;19.5
53698;PMS7003;68408;53.952;27.612;2023-08-30T13:55:48;26.7;23.7;17.1
53698;PMS7003;68408;53.952;27.612;2023-08-30T14:01:10;27.9;23.7;17.3
53698;PMS7003;68408;53.952;27.612;2023-08-30T14:06:10;29;25.9;19.7
53698;PMS7003;68408;53.952;27.612;2023-08-30T14:10:50;26.5;24.5;18.8
53698;PMS7003;68408;53.952;27.612;2023-08-30T14:16:10;26.5;24.3;18.6
53698;PMS7003;68408;53.952;27.612;2023-08-30T14:20:36;29.2;25.5;18.9
53698;PMS7003;68408;53.952;27.612;2023-08-30T14:25:30;27.7;23.1;17.7
53698;PMS7003;68408;53.952;27.612;2023-08-30T14:30:54;26;23.5;17.9
53698;PMS7003;68408;53.952;27.612;2023-08-30T14:35:30;28.4;25.9;19.4
53698;PMS7003;68408;53.952;27.612;2023-08-30T14:40:53;30.2;26.4;19.8
53698;PMS7003;68408;53.952;27.612;2023-08-30T14:45:58;30.4;26.7;19.9
53698;PMS7003;68408;53.952;27.612;2023-08-30T14:51:10;31.9;27.6;20
53698;PMS7003;68408;53.952;27.612;2023-08-30T14:56:10;30.9;27.5;20.3
53698;PMS7003;68408;53.952;27.612;2023-08-30T15:00:50;31.1;27.8;20.1
53698;PMS7003;68408;53.952;27.612;2023-08-30T15:06:06;31.2;27.8;20.3
53698;PMS7003;68408;53.952;27.612;2023-08-30T15:10:36;31.6;28.5;20.6
53698;PMS7003;68408;53.952;27.612;2023-08-30T15:15:44;29.4;26.7;19.8
53698;PMS7003;68408;53.952;27.612;2023-08-30T15:21:08;28.6;25.5;19
53698;PMS7003;68408;53.952;27.612;2023-08-30T15:26:03;28.3;25.1;19.1
53698;PMS7003;68408;53.952;27.612;2023-08-30T15:30:54;30.3;25.7;19
53698;PMS7003;68408;53.952;27.612;2023-08-30T15:35:57;29.2;25.5;18.1
53698;PMS7003;68408;53.952;27.612;2023-08-30T15:41:08;24.4;22.7;15.9
53698;PMS7003;68408;53.952;27.612;2023-08-30T15:45:38;29.3;26.2;19.4
53698;PMS7003;68408;53.952;27.612;2023-08-30T15:50:30;30.8;27.4;20.1
53698;PMS7003;68408;53.952;27.612;2023-08-30T15:56:10;28.2;25.4;19.1
53698;PMS7003;68408;53.952;27.612;2023-08-30T16:00:46;30.1;26.3;19.2
53698;PMS7003;68408;53.952;27.612;2023-08-30T16:05:30;16.7;13;9.9
53698;PMS7003;68408;53.952;27.612;2023-08-30T16:10:51;14.4;12.2;9.4
53698;PMS7003;68408;53.952;27.612;2023-08-30T16:15:30;14.8;13.2;10.2
53698;PMS7003;68408;53.952;27.612;2023-08-30T16:20:54;17.1;14.5;11.4
53698;PMS7003;68408;53.952;27.612;2023-08-30T16:25:56;13.9;12.1;9.3
53698;PMS7003;68408;53.952;27.612;2023-08-30T16:31:10;12.1;9.5;7.5
53698;PMS7003;68408;53.952;27.612;2023-08-30T16:36:10;8.4;7.4;5.8
53698;PMS7003;68408;53.952;27.612;2023-08-30T16:40:44;8;5.9;4.8
53698;PMS7003;68408;53.952;27.612;2023-08-30T16:46:08;7.5;6;4.7
53698;PMS7003;68408;53.952;27.612;2023-08-30T16:50:30;6.7;5.9;4.8
53698;PMS7003;68408;53.952;27.612;2023-08-30T16:55:36;6.5;5.2;4.2
53698;PMS7003;68408;53.952;27.612;2023-08-30T17:00:32;4.8;3.9;3.1
53698;PMS7003;68408;53.952;27.612;2023-08-30T17:05:46;4.8;4.1;3.4
53698;PMS7003;68408;53.952;27.612;2023-08-30T17:10:30;5.5;4;3.4
53698;PMS7003;68408;53.952;27.612;2023-08-30T17:15:32;6.3;5;3.9
53698;PMS7003;68408;53.952;27.612;2023-08-30T17:20:42;5;4.2;3.3
53698;PMS7003;68408;53.952;27.612;2023-08-30T17:26:10;5.1;4.5;3.8
53698;PMS7003;68408;53.952;27.612;2023-08-30T17:31:02;5.9;4.9;4
53698;PMS7003;68408;53.952;27.612;2023-08-30T17:35:36;6.9;5.7;4.7
53698;PMS7003;68408;53.952;27.612;2023-08-30T17:40:36;7.5;5.8;4.7
53698;PMS7003;68408;53.952;27.612;2023-08-30T17:45:44;9.2;7.9;6.4
53698;PMS7003;68408;53.952;27.612;2023-08-30T17:51:08;9.6;8.1;6.6
53698;PMS7003;68408;53.952;27.612;2023-08-30T17:55:44;7;5.3;4.3
53698;PMS7003;68408;53.952;27.612;2023-08-30T18:00:30;7.4;6.4;5.1
53698;PMS7003;68408;53.952;27.612;2023-08-30T18:05:58;7.1;6.1;5
53698;PMS7003;68408;53.952;27.612;2023-08-30T18:10:42;8;6.4;5.4
53698;PMS7003;68408;53.952;27.612;2023-08-30T18:16:10;7.9;6.5;5.2
53698;PMS7003;68408;53.952;27.612;2023-08-30T18:20:46;8.5;7.5;6
53698;PMS7003;68408;53.952;27.612;2023-08-30T18:25:34;9.3;8;6.5
53698;PMS7003;68408;53.952;27.612;2023-08-30T18:30:36;10.1;8;6.4
53698;PMS7003;68408;53.952;27.612;2023-08-30T18:35:44;10.3;7.8;6.2
53698;PMS7003;68408;53.952;27.612;2023-08-30T18:40:56;10.2;9;7.5
53698;PMS7003;68408;53.952;27.612;2023-08-30T18:45:32;16.1;14.1;11.2
53698;PMS7003;68408;53.952;27.612;2023-08-30T18:50:30;16.2;13.9;10.4
53698;PMS7003;68408;53.952;27.612;2023-08-30T18:55:54;13.8;12.1;9.9
53698;PMS7003;68408;53.952;27.612;2023-08-30T19:00:46;12.3;10.8;8.2
53698;PMS7003;68408;53.952;27.612;2023-08-30T19:06:10;9.4;8.4;6.3
53698;PMS7003;68408;53.952;27.612;2023-08-30T19:10:52;11.8;9.7;7.8
53698;PMS7003;68408;53.952;27.612;2023-08-30T19:15:38;11.1;9.7;7.7
53698;PMS7003;68408;53.952;27.612;2023-08-30T19:20:42;12.3;10.2;8.5
53698;PMS7003;68408;53.952;27.612;2023-08-30T19:25:33;9.6;8.2;6.4
53698;PMS7003;68408;53.952;27.612;2023-08-30T19:31:08;9.3;8.1;6.7
53698;PMS7003;68408;53.952;27.612;2023-08-30T19:35:40;9.1;8.3;6.4
53698;PMS7003;68408;53.952;27.612;2023-08-30T19:40:30;10;8;5.9
53698;PMS7003;68408;53.952;27.612;2023-08-30T19:46:02;10.1;9.2;7.6
53698;PMS7003;68408;53.952;27.612;2023-08-30T19:50:41;10.3;9.1;6.6
53698;PMS7003;68408;53.952;27.612;2023-08-30T19:56:04;12.5;11.3;9.2
53698;PMS7003;68408;53.952;27.612;2023-08-30T20:01:02;10.8;9.2;6.9
53698;PMS7003;68408;53.952;27.612;2023-08-30T20:05:45;11.1;9.8;8
53698;PMS7003;68408;53.952;27.612;2023-08-30T20:10:30;10.7;9;7.2
53698;PMS7003;68408;53.952;27.612;2023-08-30T20:15:44;12.4;10.8;8.7
53698;PMS7003;68408;53.952;27.612;2023-08-30T20:21:11;11.5;10.2;8.3
53698;PMS7003;68408;53.952;27.612;2023-08-30T20:25:30;11.5;9.8;7.8
53698;PMS7003;68408;53.952;27.612;2023-08-30T20:30:58;11.1;10.2;7.7
53698;PMS7003;68408;53.952;27.612;2023-08-30T20:35:48;12.6;10;8.1
53698;PMS7003;68408;53.952;27.612;2023-08-30T20:40:30;9.8;8.2;6.5
53698;PMS7003;68408;53.952;27.612;2023-08-30T20:46:10;10.8;9.3;7.5
53698;PMS7003;68408;53.952;27.612;2023-08-30T20:50:32;10.8;8.9;7.2
53698;PMS7003;68408;53.952;27.612;2023-08-30T20:55:44;10;8.8;7.2
53698;PMS7003;68408;53.952;27.612;2023-08-30T21:00:30;10.7;9.6;7.9
53698;PMS7003;68408;53.952;27.612;2023-08-30T21:05:50;10.9;9.2;7.5
53698;PMS7003;68408;53.952;27.612;2023-08-30T21:11:10;12.9;10.6;8.5
53698;PMS7003;68408;53.952;27.612;2023-08-30T21:15:46;26.5;22.7;15.9
53698;PMS7003;68408;53.952;27.612;2023-08-30T21:20:42;13.4;12.1;9.6
53698;PMS7003;68408;53.952;27.612;2023-08-30T21:25:54;11.8;10.7;8.9
53698;PMS7003;68408;53.952;27.612;2023-08-30T21:30:58;14.2;11.4;9.3
53698;PMS7003;68408;53.952;27.612;2023-08-30T21:36:10;11.9;11;8.6
53698;PMS7003;68408;53.952;27.612;2023-08-30T21:40:32;11.5;9.6;7.6
53698;PMS7003;68408;53.952;27.612;2023-08-30T21:45:50;12.1;10.5;8
53698;PMS7003;68408;53.952;27.612;2023-08-30T21:50:30;10.4;8.9;7
53698;PMS7003;68408;53.952;27.612;2023-08-30T21:56:02;10.4;9.3;7.6
53698;PMS7003;68408;53.952;27.612;2023-08-30T22:01:10;10.2;9.2;7.7
53698;PMS7003;68408;53.952;27.612;2023-08-30T22:05:30;10.4;9.1;7.3
53698;PMS7003;68408;53.952;27.612;2023-08-30T22:10:42;10.6;9.4;7.5
53698;PMS7003;68408;53.952;27.612;2023-08-30T22:15:54;10.2;8.8;7
53698;PMS7003;68408;53.952;27.612;2023-08-30T22:20:56;12.1;9.5;7.5
53698;PMS7003;68408;53.952;27.612;2023-08-30T22:26:10;12.5;9.4;7.8
53698;PMS7003;68408;53.952;27.612;2023-08-30T22:31:02;11.4;9.4;7.6
53698;PMS7003;68408;53.952;27.612;2023-08-30T22:35:36;10.3;9.3;7.6
53698;PMS7003;68408;53.952;27.612;2023-08-30T22:40:36;10.3;8.8;7
53698;PMS7003;68408;53.952;27.612;2023-08-30T22:45:30;9.4;8.8;7
53698;PMS7003;68408;53.952;27.612;2023-08-30T22:51:10;10.2;9.2;7.3
53698;PMS7003;68408;53.952;27.612;2023-08-30T22:55:30;11.2;9.2;7.1
53698;PMS7003;68408;53.952;27.612;2023-08-30T23:00:36;9.8;7.9;6.4
53698;PMS7003;68408;53.952;27.612;2023-08-30T23:05:54;10.5;8.6;7.1
53698;PMS7003;68408;53.952;27.612;2023-08-30T23:11:02;10.4;8.9;7.4
53698;PMS7003;68408;53.952;27.612;2023-08-30T23:16:10;10;8.6;6.8
53698;PMS7003;68408;53.952;27.612;2023-08-30T23:21:02;9.8;8.5;6.9
53698;PMS7003;68408;53.952;27.612;2023-08-30T23:25:44;11.5;9;6.9
53698;PMS7003;68408;53.952;27.612;2023-08-30T23:30:36;10.5;9.3;7.6
53698;PMS7003;68408;53.952;27.612;2023-08-30T23:35:36;12;9.7;7.9
53698;PMS7003;68408;53.952;27.612;2023-08-30T23:41:10;12;10.9;8.7
53698;PMS7003;68408;53.952;27.612;2023-08-30T23:45:56;11;9.6;7.7
53698;PMS7003;68408;53.952;27.612;2023-08-30T23:50:58;10.9;9.6;7.5
53698;PMS7003;68408;53.952;27.612;2023-08-30T23:56:10;10.5;9.4;7.8
